Time;durP1;ratioP1;P1;durP2;ratioP2;P2;SDS_P1;SDS_P2;PMS_P1;PMS_P2;Temp;Humidity;BMP_temperature;BMP_pressure;BME280_temperature;BME280_humidity;BME280_pressure;Samples;Min_cycle;Max_cycle;Signal;HPM_P1;HPM_P2
2024/01/27 00:00:24;;;;;;;0.93;0.93;;;;;;;3.82;100.00;102004.38;4988615;28;20088;-67
2024/01/27 00:02:49;;;;;;;1.10;1.10;;;;;;;3.63;100.00;101986.28;5007616;28;20092;-67
2024/01/27 00:05:15;;;;;;;0.98;0.98;;;;;;;3.82;100.00;102007.88;5007362;28;20029;-67
2024/01/27 00:07:40;;;;;;;1.10;1.10;;;;;;;3.80;100.00;101993.81;5006200;28;20484;-67
2024/01/27 00:10:06;;;;;;;1.02;1.02;;;;;;;3.51;100.00;101962.31;5008305;28;20026;-67
2024/01/27 00:12:32;;;;;;;1.00;1.00;;;;;;;3.71;100.00;101990.91;5008573;28;20764;-67
2024/01/27 00:14:57;;;;;;;1.10;1.10;;;;;;;3.66;100.00;101991.63;5008934;28;20036;-67
2024/01/27 00:17:25;;;;;;;1.00;1.00;;;;;;;3.60;100.00;102002.00;5007646;28;20424;-65
2024/01/27 00:19:51;;;;;;;1.10;1.10;;;;;;;3.54;100.00;102007.13;5008776;28;20115;-67
2024/01/27 00:22:20;;;;;;;1.10;1.10;;;;;;;3.57;100.00;102007.19;5007665;28;20033;-67
2024/01/27 00:24:46;;;;;;;1.05;1.05;;;;;;;3.61;100.00;102011.66;5008641;28;20037;-66
2024/01/27 00:27:11;;;;;;;1.10;1.10;;;;;;;3.60;100.00;102012.53;5006064;28;20089;-67
2024/01/27 00:29:37;;;;;;;1.00;1.00;;;;;;;3.50;100.00;102006.13;5007646;28;20065;-67
2024/01/27 00:32:02;;;;;;;1.00;1.00;;;;;;;3.45;100.00;102002.47;5006988;28;20121;-66
2024/01/27 00:34:28;;;;;;;1.20;1.20;;;;;;;3.19;100.00;101950.00;5008027;28;20030;-67
2024/01/27 00:36:53;;;;;;;1.10;1.10;;;;;;;3.38;100.00;101994.38;5002560;28;20039;-67
2024/01/27 00:39:19;;;;;;;1.10;1.10;;;;;;;3.07;100.00;101973.31;4990022;28;20422;-67
2024/01/27 00:41:45;;;;;;;1.00;1.00;;;;;;;3.26;100.00;102009.81;5008123;28;20694;-67
2024/01/27 00:44:10;;;;;;;1.20;1.20;;;;;;;3.22;100.00;102014.09;4990096;28;20036;-66
2024/01/27 00:46:37;;;;;;;1.10;1.10;;;;;;;3.23;100.00;102007.97;4991474;28;20030;-67
2024/01/27 00:49:03;;;;;;;1.08;1.08;;;;;;;3.25;100.00;102013.28;4967433;28;20034;-67
2024/01/27 00:51:28;;;;;;;1.17;1.17;;;;;;;3.28;100.00;102010.75;4996515;28;20360;-68
2024/01/27 00:53:54;;;;;;;1.05;1.05;;;;;;;3.27;100.00;102016.84;5008348;28;20052;-67
2024/01/27 00:56:19;;;;;;;1.08;1.08;;;;;;;3.20;100.00;102005.25;5008744;28;20086;-67
2024/01/27 00:58:45;;;;;;;1.10;1.10;;;;;;;2.94;100.00;101979.06;5008982;28;20037;-66
2024/01/27 01:01:10;;;;;;;1.10;1.10;;;;;;;3.17;100.00;102007.81;5008395;28;20061;-67
2024/01/27 01:03:36;;;;;;;1.00;1.00;;;;;;;3.17;100.00;102014.78;5009143;28;20112;-68
2024/01/27 01:06:01;;;;;;;1.00;1.00;;;;;;;3.02;100.00;102024.84;5007590;28;20077;-67
2024/01/27 01:08:26;;;;;;;1.10;1.10;;;;;;;3.04;100.00;102023.19;5008785;28;20196;-67
2024/01/27 01:10:52;;;;;;;1.00;1.00;;;;;;;2.88;100.00;101994.66;5007709;28;20038;-67
2024/01/27 01:13:17;;;;;;;1.20;1.20;;;;;;;3.13;100.00;102023.47;5008474;28;20084;-67
2024/01/27 01:15:43;;;;;;;1.10;1.10;;;;;;;3.07;100.00;102013.66;4991238;28;20029;-67
2024/01/27 01:18:08;;;;;;;1.10;1.10;;;;;;;3.06;100.00;102024.13;5008152;28;20480;-67
2024/01/27 01:20:34;;;;;;;1.15;1.15;;;;;;;2.99;100.00;102024.78;5006553;28;20030;-67
2024/01/27 01:22:59;;;;;;;1.10;1.10;;;;;;;2.96;100.00;102025.59;5007087;28;20029;-68
2024/01/27 01:25:24;;;;;;;1.23;1.23;;;;;;;2.91;100.00;102026.28;5006609;28;20044;-66
2024/01/27 01:27:50;;;;;;;1.08;1.08;;;;;;;2.89;100.00;102043.72;5005922;28;20075;-68
2024/01/27 01:30:16;;;;;;;1.05;1.05;;;;;;;2.93;100.00;102056.13;5005993;28;20491;-67
2024/01/27 01:32:42;;;;;;;1.08;1.08;;;;;;;2.97;100.00;102045.75;5005850;28;20065;-67
2024/01/27 01:35:10;;;;;;;1.15;1.15;;;;;;;2.95;100.00;102049.19;5006844;28;20033;-67
2024/01/27 01:37:35;;;;;;;1.30;1.30;;;;;;;2.89;100.00;102051.63;5015680;28;20109;-67
2024/01/27 01:40:00;;;;;;;1.15;1.15;;;;;;;2.85;100.00;102037.50;4990251;28;20178;-67
2024/01/27 01:42:26;;;;;;;1.10;1.10;;;;;;;2.77;100.00;102048.63;5007855;28;20038;-66
2024/01/27 01:44:51;;;;;;;1.17;1.17;;;;;;;2.60;100.00;102041.09;5008409;28;20026;-68
2024/01/27 01:47:18;;;;;;;1.20;1.20;;;;;;;2.58;100.00;102052.41;5007669;28;20054;-67
2024/01/27 01:49:43;;;;;;;1.10;1.10;;;;;;;2.61;100.00;102063.00;5008515;28;20030;-68
2024/01/27 01:52:10;;;;;;;1.10;1.10;;;;;;;2.60;100.00;102056.84;5011262;28;20052;-68
2024/01/27 01:54:37;;;;;;;1.20;1.20;;;;;;;2.66;100.00;102064.94;5011770;28;20357;-67
2024/01/27 01:57:03;;;;;;;1.13;1.13;;;;;;;2.69;100.00;102064.13;5011401;28;20021;-67
2024/01/27 01:59:29;;;;;;;1.30;1.30;;;;;;;2.64;100.00;102063.09;5009251;28;20061;-68
2024/01/27 02:01:54;;;;;;;1.13;1.13;;;;;;;2.57;100.00;102069.03;5006049;28;20447;-68
2024/01/27 02:04:20;;;;;;;1.10;1.10;;;;;;;2.41;100.00;102070.25;5012202;28;20029;-69
2024/01/27 02:06:45;;;;;;;1.10;1.10;;;;;;;2.39;100.00;102079.81;4992020;28;20064;-69
2024/01/27 02:09:10;;;;;;;1.20;1.20;;;;;;;2.45;100.00;102072.16;5011534;28;20447;-68
2024/01/27 02:11:36;;;;;;;1.20;1.20;;;;;;;2.48;100.00;102080.13;5011901;28;20022;-69
2024/01/27 02:14:02;;;;;;;1.27;1.27;;;;;;;2.30;100.00;102044.47;5010654;28;20034;-68
2024/01/27 02:16:27;;;;;;;1.20;1.20;;;;;;;2.52;100.00;102079.34;5010432;28;20026;-68
2024/01/27 02:18:53;;;;;;;1.13;1.13;;;;;;;2.51;100.00;102080.22;5009602;28;20030;-65
2024/01/27 02:21:18;;;;;;;1.10;1.10;;;;;;;2.49;100.00;102084.50;5010340;28;20034;-68
2024/01/27 02:23:43;;;;;;;1.15;1.15;;;;;;;2.38;100.00;102074.50;5009823;28;20072;-67
2024/01/27 02:26:09;;;;;;;1.10;1.10;;;;;;;2.34;100.00;102086.63;5008847;28;20072;-68
2024/01/27 02:28:35;;;;;;;1.00;1.00;;;;;;;2.32;100.00;102090.94;5010182;28;20392;-68
2024/01/27 02:31:01;;;;;;;1.20;1.20;;;;;;;2.31;100.00;102099.66;5010933;28;20068;-68
2024/01/27 02:33:26;;;;;;;1.20;1.20;;;;;;;2.29;100.00;102106.59;4992741;28;20403;-68
2024/01/27 02:35:51;;;;;;;1.35;1.35;;;;;;;2.29;100.00;102101.34;5010517;28;20037;-68
2024/01/27 02:38:17;;;;;;;1.15;1.15;;;;;;;2.32;100.00;102104.06;5010726;28;20309;-67
2024/01/27 02:40:42;;;;;;;1.30;1.30;;;;;;;2.27;100.00;102107.41;5010674;28;20038;-68
2024/01/27 02:43:08;;;;;;;1.10;1.10;;;;;;;2.23;100.00;102106.38;4983121;28;20034;-68
2024/01/27 02:45:33;;;;;;;1.20;1.20;;;;;;;2.17;100.00;102100.94;4994571;28;20021;-68
2024/01/27 02:47:59;;;;;;;1.20;1.20;;;;;;;2.15;100.00;102106.97;5010889;28;20026;-68
2024/01/27 02:50:24;;;;;;;1.20;1.20;;;;;;;2.11;100.00;102103.34;4991597;28;20034;-67
2024/01/27 02:52:50;;;;;;;1.10;1.10;;;;;;;2.07;100.00;102098.84;5008272;28;20060;-68
2024/01/27 02:55:15;;;;;;;1.27;1.27;;;;;;;1.78;100.00;102054.94;4991434;28;20068;-68
2024/01/27 02:57:41;;;;;;;1.30;1.30;;;;;;;2.12;100.00;102097.28;5008520;28;20539;-67
2024/01/27 03:00:07;;;;;;;1.30;1.30;;;;;;;2.12;100.00;102092.03;5008736;28;20109;-67
2024/01/27 03:02:33;;;;;;;1.30;1.30;;;;;;;2.12;100.00;102092.03;5007445;28;20022;-68
2024/01/27 03:04:58;;;;;;;1.30;1.30;;;;;;;2.08;100.00;102092.75;5009496;28;20115;-68
2024/01/27 03:07:23;;;;;;;1.27;1.27;;;;;;;2.02;100.00;102100.41;5009399;28;20704;-68
2024/01/27 03:09:49;;;;;;;1.30;1.30;;;;;;;2.04;100.00;102103.94;4992026;28;20021;-69
2024/01/27 03:12:15;;;;;;;1.08;1.08;;;;;;;2.00;100.00;102107.34;5006713;28;20724;-68
2024/01/27 03:14:41;;;;;;;1.20;1.20;;;;;;;2.07;100.00;102114.59;5008702;28;20029;-68
2024/01/27 03:17:07;;;;;;;1.20;1.20;;;;;;;2.06;100.00;102120.66;5008392;28;20045;-68
2024/01/27 03:19:33;;;;;;;1.23;1.23;;;;;;;2.06;100.00;102117.16;4998209;28;20081;-69
2024/01/27 03:21:58;;;;;;;1.30;1.30;;;;;;;2.00;100.00;102112.59;4989580;28;20496;-68
2024/01/27 03:24:24;;;;;;;1.20;1.20;;;;;;;1.93;100.00;102105.31;5005073;28;20152;-69
2024/01/27 03:26:49;;;;;;;1.40;1.40;;;;;;;1.67;100.00;102079.00;5009403;28;20025;-68
2024/01/27 03:29:15;;;;;;;1.20;1.20;;;;;;;1.86;100.00;102107.69;5009934;28;20030;-68
2024/01/27 03:31:40;;;;;;;1.30;1.30;;;;;;;1.91;100.00;102120.09;5009476;28;20037;-68
2024/01/27 03:34:06;;;;;;;1.08;1.08;;;;;;;1.91;100.00;102117.50;4992626;28;20030;-69
2024/01/27 03:36:31;;;;;;;1.30;1.30;;;;;;;1.90;100.00;102115.72;5009368;28;20079;-68
2024/01/27 03:38:58;;;;;;;1.25;1.25;;;;;;;1.91;100.00;102120.09;5009588;28;20088;-69
2024/01/27 03:41:23;;;;;;;1.30;1.30;;;;;;;1.89;100.00;102113.94;5010350;28;20052;-68
2024/01/27 03:43:49;;;;;;;1.30;1.30;;;;;;;1.82;100.00;102111.94;5009371;28;20500;-69
2024/01/27 03:46:15;;;;;;;1.40;1.40;;;;;;;1.47;100.00;102065.16;5008728;28;20021;-69
2024/01/27 03:48:41;;;;;;;1.20;1.20;;;;;;;1.53;100.00;102086.38;5007357;28;20033;-70
2024/01/27 03:51:06;;;;;;;1.20;1.20;;;;;;;1.80;100.00;102128.44;4990527;28;20600;-71
2024/01/27 03:53:32;;;;;;;1.30;1.30;;;;;;;1.82;100.00;102122.41;4990113;28;20026;-69
2024/01/27 03:56:04;;;;;;;1.40;1.40;;;;;;;1.86;100.00;102126.91;5004465;28;20496;-70
2024/01/27 03:58:32;;;;;;;1.30;1.30;;;;;;;1.83;100.00;102124.19;5009393;28;20026;-71
2024/01/27 04:00:58;;;;;;;1.30;1.30;;;;;;;1.81;100.00;102122.38;4990003;28;20033;-68
2024/01/27 04:03:24;;;;;;;1.40;1.40;;;;;;;1.47;100.00;102086.13;5007424;28;20029;-69
2024/01/27 04:05:50;;;;;;;1.30;1.30;;;;;;;1.74;100.00;102134.38;5008441;28;20061;-69
2024/01/27 04:08:15;;;;;;;1.20;1.20;;;;;;;1.75;100.00;102138.78;5007805;28;20104;-70
2024/01/27 04:10:41;;;;;;;1.20;1.20;;;;;;;1.74;100.00;102144.88;5007283;28;20029;-70
2024/01/27 04:13:06;;;;;;;1.25;1.25;;;;;;;1.70;100.00;102137.69;5006053;28;20038;-68
2024/01/27 04:15:38;;;;;;;1.20;1.20;;;;;;;1.39;100.00;102103.31;5007424;28;20384;-69
2024/01/27 04:18:05;;;;;;;1.38;1.38;;;;;;;1.58;100.00;102141.63;5007341;28;20469;-70
2024/01/27 04:20:31;;;;;;;1.30;1.30;;;;;;;1.29;100.00;102103.81;5006010;28;20112;-69
2024/01/27 04:22:56;;;;;;;1.40;1.40;;;;;;;1.56;100.00;102148.53;5007988;28;20468;-69
2024/01/27 04:25:21;;;;;;;1.20;1.20;;;;;;;1.58;100.00;102157.34;5008307;28;20394;-69
2024/01/27 04:27:47;;;;;;;1.23;1.23;;;;;;;1.60;100.00;102160.94;5007575;28;20018;-69
2024/01/27 04:30:12;;;;;;;1.40;1.40;;;;;;;1.60;100.00;102153.06;5007138;28;20072;-70
2024/01/27 04:32:38;;;;;;;1.10;1.10;;;;;;;1.60;100.00;102146.06;4994331;28;20034;-69
2024/01/27 04:35:04;;;;;;;1.30;1.30;;;;;;;1.60;100.00;102148.69;5007847;28;20032;-68
2024/01/27 04:37:30;;;;;;;1.20;1.20;;;;;;;1.59;100.00;102153.88;5006760;28;20026;-69
2024/01/27 04:39:55;;;;;;;1.48;1.48;;;;;;;1.60;100.00;102161.81;5007538;28;20391;-69
2024/01/27 04:42:20;;;;;;;1.30;1.30;;;;;;;1.64;100.00;102158.47;5008200;28;20554;-69
2024/01/27 04:44:46;;;;;;;1.30;1.30;;;;;;;1.64;100.00;102161.09;5008164;28;20076;-69
2024/01/27 04:47:11;;;;;;;1.30;1.30;;;;;;;1.68;100.00;102152.47;5007658;28;20112;-69
2024/01/27 04:49:37;;;;;;;1.30;1.30;;;;;;;1.69;100.00;102150.75;5008248;28;20072;-69
2024/01/27 04:52:03;;;;;;;1.20;1.20;;;;;;;1.38;100.00;102117.28;5008790;28;20402;-67
2024/01/27 04:54:28;;;;;;;1.30;1.30;;;;;;;1.36;100.00;102113.69;5007290;28;20034;-69
2024/01/27 04:56:53;;;;;;;1.23;1.23;;;;;;;1.59;100.00;102165.28;5008183;28;20547;-68
2024/01/27 04:59:19;;;;;;;1.30;1.30;;;;;;;1.58;100.00;102160.88;5008313;28;20036;-68
2024/01/27 05:01:45;;;;;;;1.35;1.35;;;;;;;1.57;100.00;102160.78;5006960;28;20386;-69
2024/01/27 05:04:11;;;;;;;1.40;1.40;;;;;;;1.53;100.00;102151.94;5007195;28;20025;-68
2024/01/27 05:06:38;;;;;;;1.30;1.30;;;;;;;1.25;100.00;102107.16;5006419;28;20050;-67
2024/01/27 05:09:05;;;;;;;1.35;1.35;;;;;;;1.47;100.00;102156.94;4988760;28;20440;-66
2024/01/27 05:11:32;;;;;;;1.40;1.40;;;;;;;1.43;100.00;102147.19;5004965;28;20030;-67
2024/01/27 05:14:00;;;;;;;1.30;1.30;;;;;;;1.39;100.00;102153.13;4988367;28;20401;-69
2024/01/27 05:16:26;;;;;;;1.40;1.40;;;;;;;1.37;100.00;102152.16;5004869;28;20497;-68
2024/01/27 05:18:51;;;;;;;1.50;1.50;;;;;;;1.37;100.00;102146.94;5007485;28;20064;-68
2024/01/27 05:21:17;;;;;;;1.35;1.35;;;;;;;1.33;100.00;102147.66;4990266;28;20080;-68
2024/01/27 05:23:42;;;;;;;1.40;1.40;;;;;;;1.29;100.00;102151.00;5007320;28;20022;-69
2024/01/27 05:26:10;;;;;;;1.35;1.35;;;;;;;1.31;100.00;102155.47;5011749;28;20391;-69
2024/01/27 05:28:35;;;;;;;1.40;1.40;;;;;;;1.29;100.00;102149.28;5011270;28;20030;-68
2024/01/27 05:31:01;;;;;;;1.40;1.40;;;;;;;1.21;100.00;102147.19;5011434;28;20033;-68
2024/01/27 05:33:26;;;;;;;1.40;1.40;;;;;;;1.23;100.00;102148.13;5011634;28;20029;-68
2024/01/27 05:35:51;;;;;;;1.40;1.40;;;;;;;1.16;100.00;102135.63;5011642;28;20573;-68
2024/01/27 05:38:17;;;;;;;1.40;1.40;;;;;;;1.01;100.00;102119.31;5011713;28;20492;-68
2024/01/27 05:40:42;;;;;;;1.30;1.30;;;;;;;1.20;100.00;102142.78;4992335;28;20021;-69
2024/01/27 05:43:08;;;;;;;1.30;1.30;;;;;;;1.18;100.00;102144.44;5001830;28;20035;-70
2024/01/27 05:45:33;;;;;;;1.40;1.40;;;;;;;1.15;100.00;102150.44;5010545;28;20033;-69
2024/01/27 05:47:59;;;;;;;1.40;1.40;;;;;;;0.90;100.00;102124.13;5003330;28;20134;-69
2024/01/27 05:50:24;;;;;;;1.30;1.30;;;;;;;1.10;100.00;102156.38;5011254;28;20037;-67
2024/01/27 05:52:49;;;;;;;1.40;1.40;;;;;;;1.06;100.00;102146.56;5011348;28;20101;-68
2024/01/27 05:55:16;;;;;;;1.50;1.50;;;;;;;1.07;100.00;102156.25;5011408;28;20038;-70
2024/01/27 05:57:42;;;;;;;1.25;1.25;;;;;;;1.09;100.00;102162.41;5008644;28;20033;-68
2024/01/27 06:00:09;;;;;;;1.35;1.35;;;;;;;1.07;100.00;102166.72;5009167;28;20030;-68
2024/01/27 06:02:36;;;;;;;1.40;1.40;;;;;;;0.96;100.00;102152.28;5008470;28;20435;-68
2024/01/27 06:05:01;;;;;;;1.42;1.42;;;;;;;1.01;100.00;102174.31;5009141;28;20017;-68
2024/01/27 06:07:27;;;;;;;1.40;1.40;;;;;;;1.00;100.00;102180.41;5006325;28;20050;-69
2024/01/27 06:09:52;;;;;;;1.58;1.58;;;;;;;0.96;100.00;102178.47;5007690;28;20018;-65
2024/01/27 06:12:19;;;;;;;1.30;1.30;;;;;;;0.96;100.00;102183.72;5006760;28;20025;-68
2024/01/27 06:14:45;;;;;;;1.50;1.50;;;;;;;0.89;100.00;102171.22;5009274;28;20029;-68
2024/01/27 06:17:10;;;;;;;1.40;1.40;;;;;;;0.97;100.00;102182.91;4991742;28;20037;-67
2024/01/27 06:19:36;;;;;;;1.30;1.30;;;;;;;1.00;100.00;102183.94;5002081;28;20049;-69
2024/01/27 06:22:02;;;;;;;1.45;1.45;;;;;;;1.04;100.00;102192.78;5010228;28;20108;-68
2024/01/27 06:24:28;;;;;;;1.33;1.33;;;;;;;1.04;100.00;102187.53;5009774;28;20418;-69
2024/01/27 06:26:53;;;;;;;1.40;1.40;;;;;;;1.00;100.00;102188.25;4991306;28;20476;-67
2024/01/27 06:29:18;;;;;;;1.20;1.20;;;;;;;0.78;100.00;102146.31;4992562;28;20084;-70
2024/01/27 06:31:44;;;;;;;1.30;1.30;;;;;;;0.95;100.00;102190.72;5007090;28;20028;-68
2024/01/27 06:34:09;;;;;;;1.30;1.30;;;;;;;0.97;100.00;102190.78;5009924;28;20519;-69
2024/01/27 06:36:34;;;;;;;1.30;1.30;;;;;;;1.00;100.00;102185.66;5007489;28;20033;-69
2024/01/27 06:39:00;;;;;;;1.40;1.40;;;;;;;1.01;100.00;102188.31;5009468;28;20018;-68
2024/01/27 06:41:25;;;;;;;1.33;1.33;;;;;;;0.97;100.00;102190.78;5009511;28;20044;-68
2024/01/27 06:43:51;;;;;;;1.40;1.40;;;;;;;0.89;100.00;102192.19;4992974;28;20116;-69
2024/01/27 06:46:16;;;;;;;1.50;1.50;;;;;;;0.88;100.00;102179.91;5001725;28;20031;-68
2024/01/27 06:48:42;;;;;;;1.35;1.35;;;;;;;0.87;100.00;102167.66;5010762;28;20211;-68
2024/01/27 06:51:07;;;;;;;1.40;1.40;;;;;;;0.83;100.00;102173.59;5009157;28;20044;-66
2024/01/27 06:53:33;;;;;;;1.38;1.38;;;;;;;0.81;100.00;102185.72;5008881;28;20040;-69
2024/01/27 06:55:58;;;;;;;1.50;1.50;;;;;;;0.78;100.00;102185.59;5009036;28;20450;-68
2024/01/27 06:58:23;;;;;;;1.50;1.50;;;;;;;0.71;100.00;102191.44;5007993;28;20029;-67
2024/01/27 07:00:49;;;;;;;1.30;1.30;;;;;;;0.65;100.00;102170.22;5008860;28;20034;-67
2024/01/27 07:03:14;;;;;;;1.40;1.40;;;;;;;0.70;100.00;102187.91;5008376;28;20065;-68
2024/01/27 07:05:40;;;;;;;1.40;1.40;;;;;;;0.70;100.00;102184.38;5007103;28;20045;-69
2024/01/27 07:08:09;;;;;;;1.38;1.38;;;;;;;0.67;100.00;102198.25;5007272;28;20028;-68
2024/01/27 07:10:37;;;;;;;1.40;1.40;;;;;;;0.65;100.00;102201.63;5008168;28;20121;-67
2024/01/27 07:13:02;;;;;;;1.40;1.40;;;;;;;0.63;100.00;102193.72;5008374;28;20026;-69
2024/01/27 07:15:28;;;;;;;1.58;1.58;;;;;;;0.66;100.00;102192.97;5009879;28;20038;-68
2024/01/27 07:17:54;;;;;;;1.60;1.60;;;;;;;0.66;100.00;102192.97;5008940;28;20053;-66
2024/01/27 07:20:20;;;;;;;1.42;1.42;;;;;;;0.69;100.00;102190.47;5010429;28;20040;-69
2024/01/27 07:22:47;;;;;;;1.40;1.40;;;;;;;0.71;100.00;102180.97;5009876;28;20030;-68
2024/01/27 07:25:13;;;;;;;1.40;1.40;;;;;;;0.79;100.00;102184.78;5009954;28;20036;-68
2024/01/27 07:27:39;;;;;;;1.25;1.25;;;;;;;0.75;100.00;102183.75;5009246;28;20021;-69
2024/01/27 07:30:06;;;;;;;1.40;1.40;;;;;;;0.81;100.00;102190.94;5009507;28;20030;-68
2024/01/27 07:32:31;;;;;;;1.50;1.50;;;;;;;0.89;100.00;102194.81;5009650;28;20453;-68
2024/01/27 07:34:57;;;;;;;1.40;1.40;;;;;;;1.09;100.00;102186.00;5009457;28;20109;-68
2024/01/27 07:37:22;;;;;;;1.30;1.30;;;;;;;1.30;100.00;102181.63;5008449;28;20036;-67
2024/01/27 07:39:50;;;;;;;1.50;1.50;;;;;;;1.51;100.00;102168.44;5009652;28;20038;-68
2024/01/27 07:42:16;;;;;;;1.40;1.40;;;;;;;1.66;100.00;102164.69;5004803;28;20026;-68
2024/01/27 07:44:42;;;;;;;1.40;1.40;;;;;;;1.82;100.00;102171.38;4990004;28;20038;-68
2024/01/27 07:47:08;;;;;;;1.40;1.40;;;;;;;1.95;100.00;102179.75;4988657;28;20413;-68
2024/01/27 07:49:34;;;;;;;1.30;1.30;;;;;;;2.08;100.00;102181.06;5008293;28;20040;-68
2024/01/27 07:51:59;;;;;;;1.50;1.50;;;;;;;1.87;100.00;102109.47;5007691;28;20025;-68
2024/01/27 07:54:25;;;;;;;1.20;1.20;;;;;;;2.15;100.00;102155.13;5006955;28;20503;-68
2024/01/27 07:56:50;;;;;;;1.30;1.30;;;;;;;2.41;100.00;102170.03;5006902;28;20014;-68
2024/01/27 07:59:16;;;;;;;1.30;1.30;;;;;;;2.57;100.00;102172.34;5005528;28;20080;-68
2024/01/27 08:01:41;;;;;;;1.20;1.20;;;;;;;2.86;100.00;102180.28;4986302;28;20050;-68
2024/01/27 08:04:07;;;;;;;1.10;1.10;;;;;;;3.64;100.00;102181.03;4986986;28;20029;-68
2024/01/27 08:06:32;;;;;;;0.95;0.95;;;;;;;4.55;100.00;102195.03;4993397;28;20061;-68
2024/01/27 08:08:58;;;;;;;1.10;1.10;;;;;;;5.03;100.00;102140.91;5006828;28;20451;-68
2024/01/27 08:11:24;;;;;;;1.00;1.00;;;;;;;6.29;100.00;102194.75;5007691;28;20085;-68
2024/01/27 08:13:50;;;;;;;0.90;0.90;;;;;;;7.43;100.00;102190.53;5000766;28;20029;-70
2024/01/27 08:16:15;;;;;;;0.90;0.90;;;;;;;8.62;100.00;102203.56;5005579;28;20041;-69
2024/01/27 08:18:45;;;;;;;0.80;0.80;;;;;;;9.53;100.00;102183.06;5007933;28;20038;-69
2024/01/27 08:21:13;;;;;;;0.90;0.90;;;;;;;10.06;100.00;102152.31;5007454;28;20025;-68
2024/01/27 08:23:39;;;;;;;0.70;0.70;;;;;;;11.22;97.43;102171.16;5008718;28;20034;-71
2024/01/27 08:26:05;;;;;;;0.77;0.77;;;;;;;12.06;88.86;102170.94;5009102;28;20032;-70
2024/01/27 08:28:30;;;;;;;0.60;0.60;;;;;;;12.86;78.05;102141.97;5007613;28;20769;-71
2024/01/27 08:30:55;;;;;;;0.70;0.70;;;;;;;13.82;63.29;102166.00;5008560;28;20091;-72
2024/01/27 08:33:21;;;;;;;0.70;0.70;;;;;;;13.98;58.33;102168.47;4990310;28;20156;-72
2024/01/27 08:35:50;;;;;;;0.70;0.70;;;;;;;14.36;56.02;102178.72;5008954;28;20029;-71
2024/01/27 08:38:15;;;;;;;0.60;0.60;;;;;;;14.59;52.11;102190.00;4990521;28;20040;-70
2024/01/27 08:40:41;;;;;;;0.60;0.60;;;;;;;14.41;52.57;102183.06;5008410;28;20478;-71
2024/01/27 08:43:06;;;;;;;0.60;0.60;;;;;;;14.47;50.92;102152.66;4989952;28;20029;-70
2024/01/27 08:45:32;;;;;;;0.70;0.70;;;;;;;14.67;51.16;102176.47;4988589;28;20128;-70
2024/01/27 08:47:58;;;;;;;0.60;0.60;;;;;;;15.30;50.25;102176.34;5005736;28;20036;-69
2024/01/27 08:50:24;;;;;;;0.60;0.60;;;;;;;15.25;47.78;102167.47;5005656;28;20030;-70
2024/01/27 08:52:49;;;;;;;0.60;0.60;;;;;;;15.31;47.62;102178.09;5007195;28;20538;-70
2024/01/27 08:55:18;;;;;;;0.60;0.60;;;;;;;15.63;46.98;102181.09;5006921;28;20061;-70
2024/01/27 08:57:44;;;;;;;0.70;0.70;;;;;;;16.01;46.27;102171.41;5006465;28;20033;-70
2024/01/27 09:00:11;;;;;;;0.60;0.60;;;;;;;15.46;45.18;102177.84;5010014;28;20025;-71
2024/01/27 09:02:36;;;;;;;0.60;0.60;;;;;;;13.97;47.98;102184.56;5015172;28;20686;-70
2024/01/27 09:05:02;;;;;;;0.60;0.60;;;;;;;12.51;50.15;102149.34;5015521;28;20022;-70
2024/01/27 09:07:28;;;;;;;0.60;0.60;;;;;;;11.56;52.89;102184.44;4993459;28;20141;-71
2024/01/27 09:09:54;;;;;;;0.60;0.60;;;;;;;10.31;56.75;102171.03;4994470;28;20066;-70
2024/01/27 09:12:21;;;;;;;0.70;0.70;;;;;;;9.32;60.93;102147.50;4993820;28;20032;-70
2024/01/27 09:14:46;;;;;;;0.70;0.70;;;;;;;8.80;65.01;102186.91;4994727;28;20101;-70
2024/01/27 09:17:12;;;;;;;0.70;0.70;;;;;;;8.36;70.36;102143.16;4993884;28;20053;-69
2024/01/27 09:19:38;;;;;;;0.80;0.80;;;;;;;9.18;70.94;102172.19;4994940;28;20034;-70
2024/01/27 09:22:03;;;;;;;0.70;0.70;;;;;;;9.56;69.09;102181.31;4995485;28;20077;-70
2024/01/27 09:24:28;;;;;;;0.70;0.70;;;;;;;9.72;68.69;102134.47;4993494;28;20026;-69
2024/01/27 09:26:54;;;;;;;0.80;0.80;;;;;;;10.28;66.46;102162.19;4994100;28;20026;-69
2024/01/27 09:29:20;;;;;;;0.88;0.88;;;;;;;11.00;65.34;102159.63;4994414;28;20026;-69
2024/01/27 09:31:45;;;;;;;0.70;0.70;;;;;;;11.90;59.99;102169.22;4991969;28;20057;-69
2024/01/27 09:34:11;;;;;;;0.60;0.60;;;;;;;13.12;58.13;102164.06;4994415;28;20100;-69
2024/01/27 09:36:36;;;;;;;0.70;0.70;;;;;;;14.60;52.49;102170.31;4994405;28;20033;-69
2024/01/27 09:39:02;;;;;;;0.70;0.70;;;;;;;15.76;49.89;102160.28;4993119;28;20053;-69
2024/01/27 09:41:32;;;;;;;0.70;0.70;;;;;;;16.80;46.30;102163.38;4994387;28;20030;-69
2024/01/27 09:44:01;;;;;;;0.70;0.70;;;;;;;17.34;45.21;102163.78;4993479;28;20038;-68
2024/01/27 09:46:27;;;;;;;0.70;0.70;;;;;;;17.87;43.55;102155.19;4993099;28;20092;-69
2024/01/27 09:48:53;;;;;;;0.60;0.60;;;;;;;18.03;43.43;102160.09;4991770;28;20034;-68
2024/01/27 09:51:19;;;;;;;0.60;0.60;;;;;;;18.45;43.08;102151.66;4993246;28;20106;-68
2024/01/27 09:53:45;;;;;;;0.60;0.60;;;;;;;18.80;43.06;102146.03;4991901;28;20037;-68
2024/01/27 09:56:18;;;;;;;0.50;0.50;;;;;;;19.19;41.57;102163.59;4992902;28;20039;-68
2024/01/27 09:58:45;;;;;;;0.60;0.60;;;;;;;19.04;40.88;102156.03;4992037;28;20048;-68
2024/01/27 10:01:11;;;;;;;0.50;0.50;;;;;;;19.11;42.06;102152.19;4993446;28;20042;-68
2024/01/27 10:03:40;;;;;;;0.50;0.50;;;;;;;19.09;40.90;102152.22;4993952;28;20030;-63
2024/01/27 10:06:08;;;;;;;0.50;0.50;;;;;;;18.97;41.91;102159.84;4997200;28;20294;-63
2024/01/27 10:08:34;;;;;;;0.50;0.50;;;;;;;19.18;41.35;102161.81;5012332;28;20112;-64
2024/01/27 10:11:04;;;;;;;0.50;0.50;;;;;;;18.88;42.06;102141.28;5011351;28;20029;-63
2024/01/27 10:13:30;;;;;;;0.50;0.50;;;;;;;19.08;42.29;102163.94;5010352;28;20522;-64
2024/01/27 10:16:14;;;;;;;0.47;0.47;;;;;;;18.82;40.28;102168.44;4993177;28;20061;-63
2024/01/27 10:18:39;;;;;;;;;;;;;;;18.23;41.30;102170.25;5009506;28;20137;-63
2024/01/27 10:21:15;;;;;;;0.43;0.43;;;;;;;17.81;41.90;102161.59;5011607;28;20003;-63
2024/01/27 10:23:41;;;;;;;0.50;0.50;;;;;;;17.03;42.85;102151.13;5010971;28;20034;-63
2024/01/27 10:26:09;;;;;;;0.50;0.50;;;;;;;16.69;43.25;102146.59;5011291;28;20072;-63
2024/01/27 10:28:35;;;;;;;0.50;0.50;;;;;;;16.66;44.64;102088.47;5011635;28;20034;-63
2024/01/27 10:31:10;;;;;;;0.50;0.50;;;;;;;16.71;45.45;102150.16;5011747;28;20104;-62
2024/01/27 10:33:36;;;;;;;0.50;0.50;;;;;;;17.25;45.35;102146.09;5009963;28;20570;-62
2024/01/27 10:36:02;;;;;;;0.50;0.50;;;;;;;17.85;44.46;102146.25;4992867;28;20072;-63
2024/01/27 10:38:40;;;;;;;0.50;0.50;;;;;;;17.56;43.95;102143.50;5009405;28;20038;-62
2024/01/27 10:41:10;;;;;;;0.50;0.50;;;;;;;17.53;43.11;102139.06;5009497;28;20030;-63
2024/01/27 10:43:37;;;;;;;0.50;0.50;;;;;;;16.75;44.69;102136.59;5008373;28;20025;-64
2024/01/27 10:46:06;;;;;;;0.50;0.50;;;;;;;16.57;44.60;102138.88;5007459;28;20026;-63
2024/01/27 10:48:34;;;;;;;0.60;0.60;;;;;;;16.46;45.26;102135.50;5007169;28;20091;-63
2024/01/27 10:51:03;;;;;;;0.50;0.50;;;;;;;16.30;46.36;102102.72;5006974;28;20030;-62
2024/01/27 10:53:31;;;;;;;0.50;0.50;;;;;;;16.72;45.25;102133.13;5008239;28;20034;-63
2024/01/27 10:55:58;;;;;;;0.60;0.60;;;;;;;16.04;45.62;102134.66;5008946;28;20033;-62
2024/01/27 10:58:24;;;;;;;0.52;0.52;;;;;;;15.62;47.41;102141.78;5009343;28;20022;-62
2024/01/27 11:00:54;;;;;;;0.50;0.50;;;;;;;15.29;47.92;102136.09;5008905;28;20028;-62
2024/01/27 11:03:22;;;;;;;0.60;0.60;;;;;;;14.63;49.28;102130.09;5004620;28;20038;-62
2024/01/27 11:05:49;;;;;;;0.50;0.50;;;;;;;14.40;48.80;102126.88;5010516;28;20026;-62
2024/01/27 11:08:18;;;;;;;0.60;0.60;;;;;;;14.36;49.80;102118.00;5010553;28;20472;-62
2024/01/27 11:10:44;;;;;;;0.50;0.50;;;;;;;14.68;50.03;102116.66;5010206;28;20034;-62
2024/01/27 11:13:09;;;;;;;0.60;0.60;;;;;;;14.94;50.14;102111.75;5009736;28;20136;-68
2024/01/27 11:15:35;;;;;;;0.60;0.60;;;;;;;15.08;50.37;102110.59;4991630;28;20026;-68
2024/01/27 11:18:02;;;;;;;0.50;0.50;;;;;;;15.48;47.81;102114.34;4992708;28;20033;-68
2024/01/27 11:20:27;;;;;;;0.50;0.50;;;;;;;16.04;46.49;102106.91;5013354;28;20034;-66